Terminal Aerodrome Forecast
Issued by NWS

Home | Current Version | Previous Version | Text Only | Print | Product List | Glossary On
Versions: 1 2 3 4 5 6 7 8 9 10 11 12 13 14 15 16 17 18 19 20
000
FTUS45 KABQ 041100
TAFROW
TAF
KROW 041138Z 0412/0512 21009KT P6SM BKN120
     FM041500 36011KT P6SM BKN100
     FM042000 02014G22KT P6SM OVC020
     FM050100 02013KT 5SM -SNRA OVC012=

USA.gov is the U.S. government's official web portal to all federal, state and local government web resources and services.